Time;durP1;ratioP1;P1;durP2;ratioP2;P2;SDS_P1;SDS_P2;PMS_P1;PMS_P2;Temp;Humidity;BMP_temperature;BMP_pressure;BME280_temperature;BME280_humidity;BME280_pressure;Samples;Min_cycle;Max_cycle;Signal;HPM_P1;HPM_P2
2021/05/30 00:02:07;;;;;;;5.30;4.10;;;10.70;65.70;;;10.02;53.47;95465.47;4702035;29;20274;-80
2021/05/30 00:05:39;;;;;;;5.85;4.00;;;10.70;65.80;;;9.96;52.50;95467.00;5150167;27;20631;-80
2021/05/30 00:08:07;;;;;;;5.45;4.35;;;10.60;65.60;;;9.96;54.38;95463.56;5084573;28;20214;-80
2021/05/30 00:10:34;;;;;;;5.65;4.53;;;10.60;66.00;;;9.99;53.51;95465.84;5088367;27;20213;-80
2021/05/30 00:13:00;;;;;;;4.47;3.97;;;10.60;66.10;;;10.01;53.23;95463.84;5079826;28;20296;-80
2021/05/30 00:15:27;;;;;;;6.63;4.40;;;10.60;66.20;;;10.00;54.22;95463.03;5060508;28;20238;-81
2021/05/30 00:17:54;;;;;;;4.72;4.15;;;10.60;66.30;;;10.03;53.71;95462.72;5004724;28;20226;-80
2021/05/30 00:20:21;;;;;;;5.20;4.20;;;10.60;66.40;;;10.04;54.05;95463.50;4916550;28;20687;-80
2021/05/30 00:22:47;;;;;;;5.15;4.28;;;10.60;66.50;;;10.03;54.62;95467.13;4818762;29;20231;-80
2021/05/30 00:27:45;;;;;;;5.78;4.15;;;10.60;66.60;;;10.00;54.26;95464.88;5146837;27;21145;-80
2021/05/30 00:30:14;;;;;;;5.57;4.22;;;10.60;66.50;;;9.99;54.16;95460.59;5087922;28;20225;-79
2021/05/30 00:32:41;;;;;;;4.85;4.07;;;10.50;66.50;;;9.98;53.82;95465.00;5083015;28;20604;-80
2021/05/30 00:35:09;;;;;;;7.30;4.68;;;10.60;66.80;;;9.93;53.90;95455.06;5048287;28;20259;-80
2021/05/30 00:37:35;;;;;;;4.25;3.80;;;10.50;66.70;;;9.93;53.40;95460.28;5025359;28;20668;-80
2021/05/30 00:40:03;;;;;;;5.95;4.20;;;10.50;66.60;;;9.86;54.27;95463.78;4974246;28;20212;-79
2021/05/30 00:42:30;;;;;;;5.78;4.63;;;10.50;66.80;;;9.81;54.57;95456.44;4868987;29;20210;-81
2021/05/30 00:44:56;;;;;;;5.60;4.50;;;10.50;66.80;;;9.80;54.32;95465.28;4777743;29;20222;-80
2021/05/30 00:49:41;;;;;;;6.10;5.10;;;10.50;66.90;;;9.66;55.18;95445.09;5108263;27;20326;-80
2021/05/30 00:52:08;;;;;;;5.15;4.38;;;10.40;67.20;;;9.59;56.24;95461.50;5073058;28;20197;-81
2021/05/30 00:54:38;;;;;;;7.15;4.80;;;10.40;67.50;;;9.57;55.73;95444.31;5071433;28;20253;-82
2021/05/30 00:57:09;;;;;;;6.18;4.30;;;10.30;67.60;;;9.53;55.96;95453.50;5047419;28;20240;-82
2021/05/30 00:59:37;;;;;;;6.82;5.30;;;10.30;67.70;;;9.50;55.74;95452.03;4967658;28;20686;-82
2021/05/30 01:02:05;;;;;;;6.63;4.90;;;10.20;67.80;;;9.44;56.95;95453.53;4966941;28;20210;-82
2021/05/30 01:04:34;;;;;;;7.18;4.65;;;10.20;68.00;;;9.37;56.28;95446.53;4955668;28;20223;-82
2021/05/30 01:07:01;;;;;;;5.43;4.38;;;10.20;68.10;;;9.36;56.05;95448.38;4777012;29;20699;-83
2021/05/30 01:09:38;;;;;;;5.63;4.75;;;10.10;67.90;;;9.31;56.51;95442.81;5130980;27;20793;-82
2021/05/30 01:12:08;;;;;;;8.65;4.38;;;10.00;68.10;;;9.28;56.11;95456.25;5070487;28;20671;-82
2021/05/30 01:14:36;;;;;;;6.38;5.25;;;10.00;68.20;;;9.25;56.18;95457.41;5107487;28;20213;-82
2021/05/30 01:17:05;;;;;;;6.45;4.57;;;10.00;68.10;;;9.21;56.31;95450.84;5066720;28;20592;-82
2021/05/30 01:19:34;;;;;;;5.82;4.80;;;9.90;69.60;;;9.17;57.17;95457.44;5024595;28;21559;-82
2021/05/30 01:22:01;;;;;;;6.88;5.50;;;9.90;69.90;;;9.15;57.84;95454.16;4957338;28;20253;-79
2021/05/30 01:24:28;;;;;;;6.10;4.72;;;9.80;70.20;;;9.16;57.10;95453.16;4936330;28;20593;-83
2021/05/30 01:26:55;;;;;;;6.20;4.97;;;9.90;70.10;;;9.13;58.50;95445.69;4804620;29;20214;-79
2021/05/30 01:31:22;;;;;;;6.57;4.97;;;9.80;70.60;;;9.07;57.47;95460.25;5150235;27;20972;-82
2021/05/30 01:33:50;;;;;;;7.18;5.63;;;9.80;70.50;;;9.11;57.98;95448.44;5067622;28;20226;-83
2021/05/30 01:36:17;;;;;;;6.45;5.10;;;9.70;70.70;;;9.12;57.76;95449.28;5101665;28;20723;-82
2021/05/30 01:38:44;;;;;;;5.60;4.72;;;9.80;70.70;;;9.12;57.06;95452.69;5057822;28;20261;-82
2021/05/30 01:41:10;;;;;;;6.95;5.53;;;9.70;70.30;;;9.10;57.41;95457.28;5058219;28;20215;-82
2021/05/30 01:43:37;;;;;;;7.93;5.68;;;9.70;70.60;;;9.06;58.60;95442.91;4961299;28;20230;-82
2021/05/30 01:46:03;;;;;;;6.82;5.53;;;9.70;70.90;;;9.09;57.77;95447.81;4906768;28;20286;-82
2021/05/30 01:48:31;;;;;;;6.70;5.30;;;9.70;71.00;;;9.06;58.65;95445.53;4748444;29;20277;-83
2021/05/30 01:52:17;;;;;;;6.18;5.38;;;9.70;71.30;;;9.04;58.69;95452.72;5150304;27;20627;-82
2021/05/30 01:54:49;;;;;;;12.85;5.78;;;9.70;71.10;;;9.00;59.46;95450.63;5094260;28;20220;-82
2021/05/30 01:57:16;;;;;;;6.30;4.95;;;9.70;71.50;;;9.02;58.51;95453.88;5121601;27;20209;-80
2021/05/30 01:59:45;;;;;;;6.60;5.15;;;9.70;71.40;;;9.01;59.21;95447.00;5099926;28;20222;-81
2021/05/30 02:02:12;;;;;;;8.23;5.30;;;9.70;71.70;;;9.01;59.29;95447.84;5008322;28;20217;-79
2021/05/30 02:04:44;;;;;;;7.95;5.55;;;9.70;71.80;;;9.05;58.77;95445.69;4947057;28;20233;-81
2021/05/30 02:07:13;;;;;;;7.85;5.50;;;9.60;71.80;;;9.06;59.64;95448.13;4901982;29;21505;-80
2021/05/30 02:09:39;;;;;;;8.00;5.88;;;9.70;72.10;;;9.09;59.46;95454.84;4739714;29;20236;-83
2021/05/30 02:12:18;;;;;;;8.15;6.13;;;9.70;72.10;;;9.07;59.46;95439.31;5134691;27;20380;-81
2021/05/30 02:14:45;;;;;;;9.10;6.25;;;9.70;72.10;;;9.11;60.03;95431.94;5086992;28;20229;-80
2021/05/30 02:17:12;;;;;;;9.23;6.43;;;9.70;72.60;;;9.17;60.08;95443.50;5075790;28;20302;-82
2021/05/30 02:19:39;;;;;;;10.25;6.43;;;9.70;72.70;;;9.18;60.76;95434.69;5059580;28;20222;-80
2021/05/30 02:22:05;;;;;;;7.82;5.90;;;9.70;73.00;;;9.22;60.33;95442.03;5060939;28;20196;-80
2021/05/30 02:24:32;;;;;;;8.15;5.93;;;9.80;73.00;;;9.25;59.49;95436.47;4991307;28;20328;-80
2021/05/30 02:26:59;;;;;;;8.43;6.25;;;9.80;72.80;;;9.26;59.21;95434.66;4975520;28;20226;-80
2021/05/30 02:29:38;;;;;;;9.00;6.43;;;9.70;72.50;;;9.23;60.16;95435.81;4814738;29;20279;-81
2021/05/30 02:32:16;;;;;;;8.65;6.40;;;9.80;73.20;;;9.26;59.40;95438.09;5150486;27;20390;-83
2021/05/30 02:34:43;;;;;;;7.72;5.43;;;9.80;72.80;;;9.28;58.34;95435.31;5106632;27;20616;-83
2021/05/30 02:37:16;;;;;;;7.53;5.75;;;9.80;72.40;;;9.24;58.23;95423.53;5088091;28;20251;-82
2021/05/30 02:39:45;;;;;;;6.63;5.50;;;9.80;72.40;;;9.29;58.79;95436.94;5077691;28;20262;-81
2021/05/30 02:42:12;;;;;;;7.90;5.82;;;9.90;72.40;;;9.32;58.32;95430.53;5026041;28;20275;-82
2021/05/30 02:44:40;;;;;;;8.07;6.05;;;9.80;72.30;;;9.33;59.35;95437.41;4989996;28;20236;-82
2021/05/30 02:47:06;;;;;;;7.80;5.72;;;9.90;72.60;;;9.37;59.08;95430.84;4919311;28;20342;-82
2021/05/30 02:49:34;;;;;;;8.57;6.05;;;9.80;72.50;;;9.39;58.51;95431.50;4707720;29;20721;-82
2021/05/30 02:52:11;;;;;;;9.10;5.95;;;9.90;72.60;;;9.42;58.74;95437.19;5145801;27;20326;-82
2021/05/30 02:54:38;;;;;;;7.63;6.25;;;9.90;72.70;;;9.49;58.89;95433.91;5104624;28;20217;-81
2021/05/30 02:57:06;;;;;;;8.43;6.28;;;9.90;72.70;;;9.50;58.52;95436.34;5101822;28;21560;-81
2021/05/30 02:59:32;;;;;;;7.30;5.60;;;9.90;72.80;;;9.54;58.30;95444.66;5095669;28;20217;-82
2021/05/30 03:01:59;;;;;;;9.02;6.45;;;9.90;72.30;;;9.52;58.92;95446.63;5045492;28;20239;-82
2021/05/30 03:04:26;;;;;;;8.35;6.43;;;10.00;71.40;;;9.50;58.98;95441.56;5003767;28;20260;-82
2021/05/30 03:06:52;;;;;;;7.88;5.85;;;10.00;71.30;;;9.50;58.32;95446.00;4921905;28;20257;-82
2021/05/30 03:09:20;;;;;;;8.00;6.30;;;10.00;71.00;;;9.46;58.79;95442.91;4777966;29;20715;-82
2021/05/30 03:14:23;;;;;;;10.48;6.03;;;10.00;71.40;;;9.52;58.54;95441.38;5125309;27;20402;-82
2021/05/30 03:16:50;;;;;;;8.48;6.75;;;10.10;71.50;;;9.58;59.61;95446.78;5059230;28;20717;-81
2021/05/30 03:19:18;;;;;;;7.47;6.35;;;10.10;72.10;;;9.64;59.04;95442.63;5055712;28;20681;-80
2021/05/30 03:21:45;;;;;;;8.57;7.00;;;10.10;71.80;;;9.68;58.89;95451.78;5010262;28;20673;-79
2021/05/30 03:24:11;;;;;;;9.07;7.10;;;10.10;71.80;;;9.74;58.52;95463.34;4966345;28;20216;-80
2021/05/30 03:26:39;;;;;;;7.90;6.38;;;10.10;71.70;;;9.77;58.46;95449.94;4868219;29;20218;-80
2021/05/30 03:29:06;;;;;;;8.02;6.57;;;10.20;71.80;;;9.85;58.57;95455.13;4817292;29;20695;-80
2021/05/30 03:31:32;;;;;;;9.50;6.57;;;10.20;71.80;;;9.89;58.39;95445.91;4653319;30;20226;-81
2021/05/30 03:36:08;;;;;;;8.23;6.88;;;10.20;71.80;;;9.96;58.23;95461.78;5138000;27;20563;-80
2021/05/30 03:38:36;;;;;;;9.70;6.30;;;10.30;71.60;;;10.00;57.86;95455.19;5042116;28;20748;-80
2021/05/30 03:41:05;;;;;;;6.20;5.15;;;10.40;71.40;;;10.02;57.61;95458.47;5032136;28;20654;-80
2021/05/30 03:43:34;;;;;;;7.13;5.88;;;10.40;71.30;;;10.05;57.31;95465.94;5034686;28;20278;-81
2021/05/30 03:46:02;;;;;;;7.47;6.13;;;10.40;71.40;;;10.08;57.90;95463.00;4926005;28;20274;-80
2021/05/30 03:48:29;;;;;;;10.23;6.78;;;10.40;71.50;;;10.11;57.59;95461.81;4821292;29;20291;-80
2021/05/30 03:50:56;;;;;;;7.00;5.95;;;10.40;71.40;;;10.20;57.15;95468.63;4753739;30;20716;-80
2021/05/30 03:53:23;;;;;;;7.28;6.00;;;10.50;71.50;;;10.25;57.42;95468.94;4580092;30;20283;-80
2021/05/30 03:57:47;;;;;;;7.97;5.75;;;10.50;71.40;;;10.29;56.96;95469.41;5145165;27;20571;-80
2021/05/30 04:00:17;;;;;;;7.63;5.57;;;10.60;71.30;;;10.37;57.00;95469.34;5081876;28;20672;-80
2021/05/30 04:02:46;;;;;;;8.52;5.78;;;10.60;71.40;;;10.43;56.81;95480.13;5073413;28;20671;-80
2021/05/30 04:05:15;;;;;;;8.18;5.28;;;10.70;71.30;;;10.50;56.55;95473.19;5083518;28;20210;-80
2021/05/30 04:07:43;;;;;;;6.60;5.57;;;10.70;71.20;;;10.55;56.68;95482.16;5020988;28;20673;-80
2021/05/30 04:10:12;;;;;;;7.65;5.50;;;10.80;71.20;;;10.63;56.41;95483.06;4985504;28;20218;-80
2021/05/30 04:12:41;;;;;;;8.13;5.25;;;10.80;71.30;;;10.67;56.59;95482.53;4890583;28;20224;-81
2021/05/30 04:15:10;;;;;;;6.60;5.47;;;10.90;71.30;;;10.70;56.38;95473.50;4895100;28;20205;-80
2021/05/30 04:19:27;;;;;;;7.78;5.70;;;10.90;71.10;;;10.77;56.65;95494.59;5133155;27;20648;-81
2021/05/30 04:21:54;;;;;;;8.23;6.25;;;11.00;70.80;;;10.75;56.54;95476.38;5089663;28;20207;-81
2021/05/30 04:24:21;;;;;;;7.47;5.50;;;11.10;71.00;;;10.84;56.33;95492.88;5084004;28;20227;-79
2021/05/30 04:26:47;;;;;;;8.25;6.20;;;11.10;70.90;;;10.89;56.59;95483.47;5032214;28;20220;-80
2021/05/30 04:29:14;;;;;;;7.30;6.18;;;11.10;71.10;;;10.95;56.68;95487.19;4922118;28;20242;-80
2021/05/30 04:31:41;;;;;;;7.20;5.90;;;11.20;71.20;;;11.01;56.08;95483.03;4797692;29;20275;-80
2021/05/30 04:34:07;;;;;;;8.52;5.85;;;11.30;71.20;;;11.08;55.96;95478.69;4734910;30;20636;-80
2021/05/30 04:36:35;;;;;;;8.23;6.25;;;11.30;71.10;;;11.13;56.23;95472.91;4663631;30;20230;-80
2021/05/30 04:40:25;;;;;;;9.18;6.63;;;11.40;71.20;;;11.18;56.62;95468.75;5150406;27;20644;-80
2021/05/30 04:42:52;;;;;;;8.18;6.63;;;11.50;71.30;;;11.25;56.66;95468.81;5117988;27;20306;-81
2021/05/30 04:45:20;;;;;;;9.32;6.88;;;11.50;71.30;;;11.36;56.57;95471.00;5063079;28;20217;-81
2021/05/30 04:47:46;;;;;;;8.98;6.72;;;11.60;71.40;;;11.48;56.57;95468.69;5080955;28;20250;-80
2021/05/30 04:50:14;;;;;;;8.35;6.57;;;11.60;71.50;;;11.64;56.37;95467.66;5080686;28;20213;-82
2021/05/30 04:52:42;;;;;;;7.50;6.25;;;11.60;71.50;;;11.80;56.14;95453.53;5049944;28;20219;-80
2021/05/30 04:55:13;;;;;;;8.07;6.10;;;11.80;71.80;;;12.00;55.78;95463.47;4936822;28;20212;-81
2021/05/30 04:57:41;;;;;;;10.85;6.55;;;11.90;71.80;;;12.08;55.79;95457.25;4754480;29;20220;-80
2021/05/30 05:01:35;;;;;;;9.18;6.97;;;12.00;71.50;;;12.23;55.71;95463.28;5131823;27;20625;-80
2021/05/30 05:04:02;;;;;;;10.07;7.47;;;12.20;71.30;;;12.30;55.51;95461.53;5115454;28;20273;-80
2021/05/30 05:06:29;;;;;;;9.98;7.05;;;12.30;71.30;;;12.38;55.47;95463.19;5084154;28;20214;-81
2021/05/30 05:08:56;;;;;;;8.25;6.72;;;12.40;71.30;;;12.55;55.29;95465.53;5041747;28;20219;-80
2021/05/30 05:11:22;;;;;;;9.10;7.03;;;12.50;71.30;;;12.65;55.17;95464.22;4990547;28;20284;-81
2021/05/30 05:13:49;;;;;;;9.35;7.20;;;12.50;71.10;;;12.73;55.06;95459.81;4910604;29;20247;-81
2021/05/30 05:16:15;;;;;;;8.90;7.13;;;12.70;71.10;;;12.76;54.68;95456.81;4864496;29;20299;-80
2021/05/30 05:18:42;;;;;;;10.38;8.32;;;12.80;70.80;;;12.79;54.50;95456.41;4767383;29;20242;-80
2021/05/30 05:23:02;;;;;;;10.38;7.72;;;12.80;70.50;;;12.73;54.76;95455.38;5136432;27;20669;-81
2021/05/30 05:25:31;;;;;;;9.25;8.05;;;12.90;70.10;;;12.76;54.54;95456.81;5098726;28;20200;-81
2021/05/30 05:27:58;;;;;;;9.95;8.25;;;12.90;70.00;;;12.79;54.55;95459.88;5077342;28;20718;-80
2021/05/30 05:30:26;;;;;;;10.48;8.60;;;13.00;70.10;;;12.75;54.18;95447.28;5064777;28;20207;-81
2021/05/30 05:32:52;;;;;;;11.02;8.20;;;13.00;70.00;;;12.71;54.49;95452.13;4975817;28;20287;-80
2021/05/30 05:35:19;;;;;;;11.02;7.97;;;13.00;69.90;;;12.70;54.20;95460.22;4901356;29;20209;-80
2021/05/30 05:37:46;;;;;;;9.43;7.28;;;13.00;69.80;;;12.73;54.36;95455.38;4890792;29;20658;-81
2021/05/30 05:40:14;;;;;;;11.02;7.95;;;13.10;70.00;;;12.77;54.69;95459.25;4750754;29;20286;-81
2021/05/30 05:44:13;;;;;;;9.57;7.63;;;13.00;70.00;;;12.87;54.50;95450.22;5129633;27;20561;-80
2021/05/30 05:46:39;;;;;;;8.65;7.13;;;13.10;70.00;;;12.89;54.29;95454.28;5101915;28;20682;-81
2021/05/30 05:49:06;;;;;;;11.13;8.55;;;13.20;69.80;;;12.86;54.00;95453.84;5086978;28;20229;-81
2021/05/30 05:51:33;;;;;;;9.85;7.90;;;13.10;69.60;;;12.84;54.03;95459.31;5052740;28;20209;-81
2021/05/30 05:53:59;;;;;;;10.45;7.50;;;13.10;69.60;;;12.85;53.95;95454.84;4932099;28;20236;-80
2021/05/30 05:56:26;;;;;;;10.00;8.05;;;13.10;69.40;;;12.84;54.29;95466.38;4880952;29;20215;-80
2021/05/30 05:58:52;;;;;;;8.50;6.93;;;13.10;69.50;;;12.82;54.03;95467.38;4782197;29;20278;-81
2021/05/30 06:01:19;;;;;;;8.93;7.20;;;13.10;69.40;;;12.80;53.95;95463.31;4641015;30;20265;-80
2021/05/30 06:05:40;;;;;;;9.15;6.72;;;13.10;69.40;;;12.79;53.86;95453.78;5150625;27;20634;-81
2021/05/30 06:08:07;;;;;;;8.88;6.90;;;13.10;69.40;;;12.84;54.11;95463.75;5098475;28;20221;-83
2021/05/30 06:10:34;;;;;;;9.60;6.70;;;13.10;69.50;;;12.93;53.93;95463.41;5081110;28;20663;-81
2021/05/30 06:13:03;;;;;;;8.27;6.47;;;13.10;69.60;;;12.99;54.23;95461.81;5046517;28;20325;-79
2021/05/30 06:15:32;;;;;;;9.70;7.20;;;13.20;69.80;;;13.02;53.84;95466.69;5030223;28;20219;-81
2021/05/30 06:18:03;;;;;;;8.57;6.97;;;13.20;69.60;;;13.06;53.82;95461.84;4906547;28;20239;-81
2021/05/30 06:20:31;;;;;;;8.45;6.15;;;13.30;69.60;;;13.13;53.58;95468.81;4795933;29;20236;-80
2021/05/30 06:22:57;;;;;;;7.40;6.53;;;13.30;69.70;;;13.22;53.40;95466.81;4651373;30;20246;-81
2021/05/30 06:27:07;;;;;;;6.68;5.70;;;13.30;69.50;;;13.32;53.16;95469.09;5147107;27;21085;-80
2021/05/30 06:29:33;;;;;;;7.85;6.22;;;13.40;69.20;;;13.36;53.14;95477.44;5110151;27;20226;-81
2021/05/30 06:32:00;;;;;;;9.23;6.32;;;13.50;69.20;;;13.41;52.80;95475.84;5108334;28;20228;-80
2021/05/30 06:34:27;;;;;;;7.07;5.70;;;13.50;68.90;;;13.47;52.61;95479.53;5102865;28;20728;-81
2021/05/30 06:36:54;;;;;;;7.05;5.63;;;13.60;69.00;;;13.53;52.83;95467.41;5067341;28;20199;-80
2021/05/30 06:39:23;;;;;;;7.28;5.60;;;13.60;68.80;;;13.58;52.55;95468.41;4994598;28;20255;-80
2021/05/30 06:41:51;;;;;;;5.47;4.90;;;13.60;68.80;;;13.71;52.50;95467.66;4939159;28;20295;-81
2021/05/30 06:44:18;;;;;;;6.43;5.15;;;13.70;68.80;;;13.79;52.02;95468.50;4769219;29;20248;-81
2021/05/30 06:48:34;;;;;;;5.82;5.00;;;13.80;68.60;;;13.79;51.77;95461.41;5140599;27;20605;-81
2021/05/30 06:51:13;;;;;;;6.90;5.05;;;13.90;68.20;;;13.86;51.98;95472.78;5087987;28;20209;-81
2021/05/30 06:53:41;;;;;;;7.85;5.63;;;13.90;68.30;;;13.88;51.66;95483.94;5080587;28;20273;-79
2021/05/30 06:56:07;;;;;;;5.85;5.05;;;14.00;69.10;;;13.92;51.60;95484.38;5049910;28;20293;-80
2021/05/30 06:58:33;;;;;;;6.10;4.90;;;13.90;68.10;;;13.96;51.60;95482.94;4948476;28;20230;-80
2021/05/30 07:01:00;;;;;;;5.78;5.18;;;14.10;68.20;;;14.04;51.51;95481.97;4906464;29;20675;-80
2021/05/30 07:03:27;;;;;;;6.47;5.45;;;14.10;68.20;;;14.08;51.24;95489.28;4832110;29;20240;-80
2021/05/30 07:05:54;;;;;;;7.47;5.55;;;14.10;67.80;;;14.09;51.37;95496.19;4741614;29;20274;-80
2021/05/30 07:08:31;;;;;;;7.13;5.68;;;14.10;67.70;;;14.08;51.34;95488.47;5123362;27;20328;-81
2021/05/30 07:10:58;;;;;;;5.97;5.38;;;14.10;67.60;;;14.16;51.04;95493.56;5082256;28;20216;-81
2021/05/30 07:13:26;;;;;;;5.85;5.18;;;14.20;67.70;;;14.18;50.73;95501.28;5088396;28;20239;-81
2021/05/30 07:15:53;;;;;;;5.60;5.00;;;14.30;67.50;;;14.21;50.84;95503.53;5065277;28;20569;-80
2021/05/30 07:18:21;;;;;;;7.55;5.18;;;14.20;67.30;;;14.17;50.57;95494.38;5050429;28;20238;-80
2021/05/30 07:20:49;;;;;;;6.85;5.20;;;14.30;67.20;;;14.27;50.63;95496.63;5009050;28;20218;-81
2021/05/30 07:23:17;;;;;;;6.40;5.68;;;14.30;67.30;;;14.30;50.42;95485.69;4869669;29;20599;-82
2021/05/30 07:25:45;;;;;;;6.55;5.25;;;14.30;68.20;;;14.40;50.59;95494.81;4659441;29;20281;-82
2021/05/30 07:30:27;;;;;;;5.75;5.13;;;14.40;67.40;;;14.55;50.29;95502.56;5150425;27;20633;-81
2021/05/30 07:32:54;;;;;;;6.15;5.15;;;14.50;67.50;;;14.68;50.46;95507.06;5102928;28;20228;-82
2021/05/30 07:35:20;;;;;;;5.50;4.75;;;14.60;67.60;;;14.79;50.57;95499.53;5104650;28;20271;-82
2021/05/30 07:37:49;;;;;;;8.00;5.40;;;14.60;67.50;;;14.91;50.17;95507.66;5119841;28;20269;-81
2021/05/30 07:40:17;;;;;;;6.40;4.72;;;14.70;67.40;;;14.95;50.27;95512.34;5050920;28;20203;-81
2021/05/30 07:42:46;;;;;;;6.20;4.50;;;14.80;67.20;;;14.99;50.23;95507.44;4963596;28;20624;-80
2021/05/30 07:45:15;;;;;;;5.03;4.53;;;14.90;67.30;;;14.98;50.04;95508.47;4825966;29;20738;-81
2021/05/30 07:47:43;;;;;;;5.28;4.68;;;14.90;66.90;;;14.91;49.99;95507.66;4581828;30;20678;-81
2021/05/30 07:50:19;;;;;;;5.15;4.13;;;15.00;66.70;;;14.91;49.77;95512.94;5143437;27;20306;-81
2021/05/30 07:52:46;;;;;;;4.50;4.10;;;15.00;66.60;;;14.84;49.79;95511.13;5081646;28;20206;-81
2021/05/30 07:55:14;;;;;;;4.85;4.38;;;15.00;66.40;;;14.77;49.70;95515.59;5069325;28;20214;-82
2021/05/30 07:57:41;;;;;;;5.20;4.70;;;15.00;66.50;;;14.70;49.89;95515.56;5047453;28;20277;-81
2021/05/30 08:00:11;;;;;;;6.68;4.88;;;15.10;66.50;;;14.66;49.89;95518.81;5031462;28;20355;-81
2021/05/30 08:02:41;;;;;;;7.60;5.50;;;14.90;66.40;;;14.58;49.95;95520.59;4988283;28;20228;-82
2021/05/30 08:05:11;;;;;;;7.55;5.55;;;15.00;66.50;;;14.61;49.93;95521.22;4917051;28;20563;-82
2021/05/30 08:07:38;;;;;;;5.70;5.10;;;14.80;66.40;;;14.64;49.87;95523.47;4771245;29;20219;-81
2021/05/30 08:11:28;;;;;;;4.95;4.45;;;14.80;67.40;;;14.73;49.99;95520.47;5144689;27;20634;-81
2021/05/30 08:13:56;;;;;;;6.43;4.88;;;14.80;66.70;;;14.86;49.94;95524.94;5106166;27;20752;-80
2021/05/30 08:16:42;;;;;;;4.88;4.38;;;14.80;66.80;;;15.05;50.00;95530.44;5059037;28;20245;-80
2021/05/30 08:19:10;;;;;;;6.65;4.55;;;14.90;67.00;;;15.15;49.83;95522.88;5023725;28;20227;-80
2021/05/30 08:21:36;;;;;;;5.57;4.70;;;15.00;67.00;;;15.29;49.44;95534.22;5042596;28;20211;-81
2021/05/30 08:24:04;;;;;;;6.60;5.40;;;15.10;66.80;;;15.31;48.90;95537.50;5058780;28;20226;-82
2021/05/30 08:26:31;;;;;;;5.63;5.03;;;15.20;66.50;;;15.35;49.03;95540.53;4999588;28;20575;-81
2021/05/30 08:28:58;;;;;;;7.28;5.10;;;15.20;66.40;;;15.41;49.37;95538.91;4770084;29;20261;-80
2021/05/30 08:31:31;;;;;;;5.20;4.70;;;15.30;66.50;;;15.46;49.41;95542.53;5133317;27;20311;-81
2021/05/30 08:33:59;;;;;;;5.57;4.97;;;15.40;66.70;;;15.52;49.23;95547.00;5085701;28;20308;-82
2021/05/30 08:36:28;;;;;;;5.70;4.45;;;15.40;66.60;;;15.57;49.16;95546.38;5065107;28;20301;-81
2021/05/30 08:38:55;;;;;;;5.68;5.03;;;15.50;66.40;;;15.60;49.12;95540.69;5046840;28;20219;-81
2021/05/30 08:41:22;;;;;;;5.93;4.88;;;15.50;66.40;;;15.65;48.80;95543.53;5073304;28;20661;-82
2021/05/30 08:43:49;;;;;;;6.60;4.68;;;15.60;66.20;;;15.69;48.84;95550.00;5050304;28;20227;-81
2021/05/30 08:46:16;;;;;;;8.52;5.10;;;15.60;66.30;;;15.71;49.09;95544.53;5007453;28;20272;-82
2021/05/30 08:48:42;;;;;;;4.90;4.40;;;15.70;66.40;;;15.83;48.86;95555.28;4814785;28;20237;-81
2021/05/30 08:52:58;;;;;;;5.40;4.80;;;15.80;66.20;;;15.87;48.86;95556.50;5131734;27;20652;-81
2021/05/30 08:55:26;;;;;;;6.13;5.53;;;15.80;66.20;;;15.89;48.74;95556.28;5089628;28;20702;-80
2021/05/30 08:57:53;;;;;;;5.38;4.88;;;15.80;65.90;;;15.92;48.49;95559.34;5112905;27;20673;-80
2021/05/30 09:00:28;;;;;;;6.97;5.18;;;15.90;66.00;;;15.87;48.40;95553.03;5079994;28;20202;-81
2021/05/30 09:03:16;;;;;;;5.47;4.97;;;15.80;65.60;;;15.83;48.47;95565.88;4992416;28;20333;-80
2021/05/30 09:05:43;;;;;;;5.85;5.25;;;15.90;65.50;;;15.77;48.21;95561.38;4971137;28;20692;-79
2021/05/30 09:08:30;;;;;;;5.40;4.90;;;15.90;65.50;;;15.68;48.61;95552.88;4924090;28;20226;-81
2021/05/30 09:11:11;;;;;;;6.85;5.80;;;15.90;65.50;;;15.65;48.17;95562.03;5127884;27;20587;-81
2021/05/30 09:13:55;;;;;;;7.00;5.60;;;15.80;65.20;;;15.60;48.16;95564.50;5086979;27;20225;-81
2021/05/30 09:16:24;;;;;;;7.25;6.30;;;15.70;65.10;;;15.59;48.47;95556.78;5051557;28;20545;-81
2021/05/30 09:18:51;;;;;;;6.82;5.43;;;15.70;65.50;;;15.65;48.61;95551.44;5029850;28;20232;-81
2021/05/30 09:21:20;;;;;;;5.93;5.03;;;15.70;65.60;;;15.81;48.59;95554.66;5023289;28;20205;-80
2021/05/30 09:23:47;;;;;;;6.30;5.70;;;15.70;65.60;;;15.99;48.49;95554.84;4916307;28;20236;-81
2021/05/30 09:26:20;;;;;;;7.03;5.43;;;15.80;66.00;;;16.18;48.42;95552.31;4779255;29;20214;-81
2021/05/30 09:31:54;;;;;;;6.35;5.57;;;15.80;66.10;;;16.58;47.67;95552.06;5128766;27;20563;-82
2021/05/30 09:34:47;;;;;;;6.30;5.28;;;16.20;65.60;;;16.75;47.29;95548.94;5090839;28;20219;-82
2021/05/30 09:37:17;;;;;;;6.53;5.53;;;16.30;65.60;;;16.83;47.01;95545.19;5045141;28;20215;-80
2021/05/30 09:39:50;;;;;;;6.22;5.60;;;16.40;65.20;;;16.89;46.89;95549.63;5003935;28;20323;-81
2021/05/30 09:42:33;;;;;;;5.60;5.10;;;16.60;65.00;;;16.88;46.64;95551.47;5028969;28;20192;-80
2021/05/30 09:45:06;;;;;;;6.20;5.60;;;16.60;64.80;;;16.85;46.43;95543.94;4928919;28;20222;-81
2021/05/30 09:47:45;;;;;;;6.50;5.70;;;16.70;64.80;;;16.96;46.96;95553.88;4818949;29;20215;-81
2021/05/30 09:52:51;;;;;;;7.68;6.10;;;16.70;64.70;;;17.20;46.30;95561.22;5137373;27;20362;-81
2021/05/30 09:55:28;;;;;;;7.70;6.18;;;16.90;64.60;;;17.23;46.23;95561.59;5068922;28;20261;-80
2021/05/30 09:58:16;;;;;;;5.80;5.20;;;16.90;64.40;;;17.29;46.36;95570.53;5071962;28;20240;-81
2021/05/30 10:00:57;;;;;;;5.72;5.07;;;17.00;64.30;;;17.41;46.21;95562.69;5036727;28;20212;-81
2021/05/30 10:03:25;;;;;;;5.88;5.22;;;17.10;64.70;;;17.57;46.40;95558.66;4979517;28;20234;-82
2021/05/30 10:05:53;;;;;;;6.07;5.40;;;17.20;64.50;;;17.70;45.76;95550.56;4888024;28;20211;-82
2021/05/30 10:08:22;;;;;;;5.68;5.18;;;17.30;64.40;;;17.81;45.67;95554.31;4703832;29;20305;-83
2021/05/30 10:13:15;;;;;;;5.78;5.13;;;17.40;64.00;;;18.14;45.26;95555.78;5143247;27;20392;-82
2021/05/30 10:15:43;;;;;;;5.90;5.30;;;17.70;64.30;;;18.28;44.94;95550.31;5102263;28;20212;-81
2021/05/30 10:18:24;;;;;;;5.43;4.93;;;17.90;64.00;;;18.45;44.91;95553.16;5109868;27;20237;-82
2021/05/30 10:20:53;;;;;;;5.35;4.95;;;18.00;63.90;;;18.58;44.58;95541.50;5082561;28;20235;-82
2021/05/30 10:23:22;;;;;;;5.10;4.60;;;18.10;63.70;;;18.67;44.54;95535.66;5046691;28;20218;-81
2021/05/30 10:25:49;;;;;;;5.38;4.88;;;18.20;63.60;;;18.81;44.77;95532.78;5021242;28;20206;-81
2021/05/30 10:29:08;;;;;;;5.70;4.85;;;18.40;63.50;;;18.93;43.74;95535.50;4841720;29;20234;-82
2021/05/30 10:31:37;;;;;;;5.20;4.70;;;18.50;63.10;;;19.03;43.85;95535.75;4563342;30;20246;-81
2021/05/30 10:34:18;;;;;;;5.15;4.75;;;18.60;62.90;;;19.13;44.07;95519.25;5134161;27;20327;-81
2021/05/30 10:37:16;;;;;;;5.55;5.00;;;18.80;62.60;;;19.26;43.60;95537.63;5069408;28;20236;-81
2021/05/30 10:39:43;;;;;;;5.95;5.00;;;18.90;62.60;;;19.26;43.46;95534.16;5043016;28;20254;-81
2021/05/30 10:42:25;;;;;;;5.45;4.45;;;19.00;62.70;;;19.19;43.39;95536.94;5048302;28;20218;-81
2021/05/30 10:45:05;;;;;;;4.97;4.57;;;19.00;62.30;;;19.00;43.41;95541.53;5056740;28;20226;-82
2021/05/30 10:47:44;;;;;;;6.03;5.43;;;19.00;61.90;;;18.78;43.19;95544.69;5031968;28;20300;-81
2021/05/30 10:50:20;;;;;;;5.72;5.10;;;19.00;62.10;;;18.51;43.46;95542.41;4862564;29;20208;-82
2021/05/30 10:54:33;;;;;;;6.07;5.55;;;18.80;61.30;;;18.05;43.43;95557.13;5131360;27;20634;-82
2021/05/30 10:57:00;;;;;;;5.68;5.18;;;18.60;61.20;;;17.80;43.91;95560.66;5086090;28;20206;-82
2021/05/30 10:59:28;;;;;;;6.03;5.43;;;18.40;61.80;;;17.57;44.20;95564.75;5080617;28;20222;-82
2021/05/30 11:01:56;;;;;;;5.82;5.32;;;18.20;61.90;;;17.38;43.99;95568.41;5045666;28;20198;-81
2021/05/30 11:04:29;;;;;;;6.30;5.70;;;18.00;61.90;;;17.18;44.27;95555.34;4991195;28;20327;-80
2021/05/30 11:07:06;;;;;;;6.72;6.03;;;17.80;61.70;;;17.01;44.37;95560.38;4946817;28;20269;-81
2021/05/30 11:09:57;;;;;;;6.22;5.32;;;17.60;61.60;;;16.83;44.90;95559.25;4876702;29;20234;-84
2021/05/30 11:12:58;;;;;;;5.90;5.30;;;17.40;61.70;;;16.69;44.86;95558.53;5146279;27;20630;-81
2021/05/30 11:15:27;;;;;;;6.93;6.30;;;17.20;61.90;;;16.60;44.77;95568.56;5080766;28;20916;-81
2021/05/30 11:18:01;;;;;;;6.18;5.57;;;17.10;62.20;;;16.56;45.14;95574.50;5091172;28;20304;-80